sensor_id;sensor_type;location;lat;lon;timestamp;pressure;altitude;pressure_sealevel;temperature;humidity
15817;BME280;8009;50.070;8.232;2023-05-02T00:02:14;100089.69;;;12.97;62.03
15817;BME280;8009;50.070;8.232;2023-05-02T00:04:56;100094.25;;;12.96;61.62
15817;BME280;8009;50.070;8.232;2023-05-02T00:22:49;100082.72;;;13.15;61.54
15817;BME280;8009;50.070;8.232;2023-05-02T00:25:17;100082.06;;;13.23;61.20
15817;BME280;8009;50.070;8.232;2023-05-02T00:27:45;100085.56;;;13.25;61.15
15817;BME280;8009;50.070;8.232;2023-05-02T00:30:15;100100.09;;;13.12;61.56
15817;BME280;8009;50.070;8.232;2023-05-02T00:32:45;100098.59;;;12.87;62.92
15817;BME280;8009;50.070;8.232;2023-05-02T00:35:13;100099.59;;;12.86;62.50
15817;BME280;8009;50.070;8.232;2023-05-02T00:37:42;100090.16;;;12.69;62.95
15817;BME280;8009;50.070;8.232;2023-05-02T00:40:13;100088.81;;;12.75;62.97
15817;BME280;8009;50.070;8.232;2023-05-02T00:42:41;100098.66;;;12.65;63.30
15817;BME280;8009;50.070;8.232;2023-05-02T00:45:10;100096.19;;;12.73;63.49
15817;BME280;8009;50.070;8.232;2023-05-02T00:47:38;100098.81;;;12.96;63.55
15817;BME280;8009;50.070;8.232;2023-05-02T00:50:07;100096.19;;;12.73;63.30
15817;BME280;8009;50.070;8.232;2023-05-02T00:52:36;100101.81;;;12.81;62.77
15817;BME280;8009;50.070;8.232;2023-05-02T00:55:05;100099.13;;;12.70;63.49
15817;BME280;8009;50.070;8.232;2023-05-02T00:57:37;100096.41;;;12.81;63.45
15817;BME280;8009;50.070;8.232;2023-05-02T01:00:07;100096.06;;;12.75;63.88
15817;BME280;8009;50.070;8.232;2023-05-02T01:02:43;100100.78;;;12.61;64.28
15817;BME280;8009;50.070;8.232;2023-05-02T01:05:19;100106.44;;;12.58;64.77
15817;BME280;8009;50.070;8.232;2023-05-02T01:07:59;100101.75;;;12.72;63.71
15817;BME280;8009;50.070;8.232;2023-05-02T01:10:41;100106.00;;;12.85;63.64
15817;BME280;8009;50.070;8.232;2023-05-02T01:13:20;100107.59;;;12.88;63.43
15817;BME280;8009;50.070;8.232;2023-05-02T01:15:50;100104.72;;;13.01;63.38
15817;BME280;8009;50.070;8.232;2023-05-02T01:18:30;100111.50;;;12.95;63.68
15817;BME280;8009;50.070;8.232;2023-05-02T01:21:02;100112.00;;;12.89;63.71
15817;BME280;8009;50.070;8.232;2023-05-02T01:23:38;100111.56;;;12.84;64.06
15817;BME280;8009;50.070;8.232;2023-05-02T01:26:16;100122.53;;;12.82;64.53
15817;BME280;8009;50.070;8.232;2023-05-02T01:29:05;100126.75;;;12.64;nan
15817;BME280;8009;50.070;8.232;2023-05-02T01:34:49;100130.78;;;12.69;65.01
15817;BME280;8009;50.070;8.232;2023-05-02T01:40:40;100124.16;;;12.62;65.67
15817;BME280;8009;50.070;8.232;2023-05-02T01:43:12;100136.13;;;12.60;65.26
15817;BME280;8009;50.070;8.232;2023-05-02T01:45:46;100143.13;;;12.51;66.12
15817;BME280;8009;50.070;8.232;2023-05-02T01:48:16;100144.03;;;12.52;66.08
15817;BME280;8009;50.070;8.232;2023-05-02T01:50:46;100148.44;;;12.53;66.24
15817;BME280;8009;50.070;8.232;2023-05-02T01:53:15;100149.44;;;12.52;66.57
15817;BME280;8009;50.070;8.232;2023-05-02T01:55:48;100151.00;;;12.65;65.99
15817;BME280;8009;50.070;8.232;2023-05-02T01:58:18;100149.53;;;12.61;66.14
15817;BME280;8009;50.070;8.232;2023-05-02T02:00:50;100155.72;;;12.30;67.66
15817;BME280;8009;50.070;8.232;2023-05-02T02:03:20;100160.84;;;12.55;67.19
15817;BME280;8009;50.070;8.232;2023-05-02T02:09:12;100160.75;;;12.57;67.28
15817;BME280;8009;50.070;8.232;2023-05-02T02:11:45;100163.59;;;12.44;67.30
15817;BME280;8009;50.070;8.232;2023-05-02T02:14:18;100162.09;;;12.40;67.76
15817;BME280;8009;50.070;8.232;2023-05-02T02:16:52;100161.00;;;12.31;67.84
15817;BME280;8009;50.070;8.232;2023-05-02T02:19:22;100171.34;;;12.37;68.13
15817;BME280;8009;50.070;8.232;2023-05-02T02:21:54;100176.59;;;12.05;69.02
15817;BME280;8009;50.070;8.232;2023-05-02T02:24:25;100174.84;;;13.37;64.90
15817;BME280;8009;50.070;8.232;2023-05-02T02:26:54;100180.63;;;12.89;65.79
15817;BME280;8009;50.070;8.232;2023-05-02T02:29:23;100179.56;;;12.58;67.66
15817;BME280;8009;50.070;8.232;2023-05-02T02:31:54;100180.19;;;12.39;68.49
15817;BME280;8009;50.070;8.232;2023-05-02T02:34:22;100181.19;;;12.50;67.64
15817;BME280;8009;50.070;8.232;2023-05-02T02:36:55;100176.16;;;12.45;67.91
15817;BME280;8009;50.070;8.232;2023-05-02T02:39:34;100175.03;;;12.25;69.52
15817;BME280;8009;50.070;8.232;2023-05-02T02:42:10;100182.19;;;12.37;68.41
15817;BME280;8009;50.070;8.232;2023-05-02T02:44:48;100181.75;;;11.86;70.64
15817;BME280;8009;50.070;8.232;2023-05-02T02:47:28;100187.97;;;12.33;68.54
15817;BME280;8009;50.070;8.232;2023-05-02T02:50:10;100191.78;;;12.41;68.21
15817;BME280;8009;50.070;8.232;2023-05-02T02:52:49;100193.72;;;12.06;69.98
15817;BME280;8009;50.070;8.232;2023-05-02T02:55:30;100195.84;;;12.13;69.68
15817;BME280;8009;50.070;8.232;2023-05-02T02:58:29;100199.50;;;12.12;70.25
15817;BME280;8009;50.070;8.232;2023-05-02T03:01:16;100206.28;;;12.07;70.29
15817;BME280;8009;50.070;8.232;2023-05-02T03:03:48;100207.84;;;11.87;70.63
15817;BME280;8009;50.070;8.232;2023-05-02T03:06:18;100219.69;;;11.73;71.76
15817;BME280;8009;50.070;8.232;2023-05-02T03:08:47;100228.16;;;11.68;71.77
15817;BME280;8009;50.070;8.232;2023-05-02T03:11:15;100229.69;;;11.60;72.55
15817;BME280;8009;50.070;8.232;2023-05-02T03:13:44;100231.63;;;11.82;71.86
15817;BME280;8009;50.070;8.232;2023-05-02T03:29:15;100236.25;;;11.92;71.63
15817;BME280;8009;50.070;8.232;2023-05-02T03:41:21;100247.63;;;12.20;70.26
15817;BME280;8009;50.070;8.232;2023-05-02T03:47:20;100260.34;;;11.84;71.25
15817;BME280;8009;50.070;8.232;2023-05-02T03:50:04;100257.25;;;12.35;69.80
15817;BME280;8009;50.070;8.232;2023-05-02T03:52:44;100255.72;;;12.09;70.41
15817;BME280;8009;50.070;8.232;2023-05-02T04:01:39;100258.63;;;11.83;71.33
15817;BME280;8009;50.070;8.232;2023-05-02T04:04:12;100259.47;;;11.84;71.55
15817;BME280;8009;50.070;8.232;2023-05-02T04:06:41;100260.53;;;12.16;70.37
15817;BME280;8009;50.070;8.232;2023-05-02T04:09:09;100261.38;;;12.17;70.66
15817;BME280;8009;50.070;8.232;2023-05-02T04:11:38;100266.81;;;12.17;70.54
15817;BME280;8009;50.070;8.232;2023-05-02T04:14:06;100278.06;;;11.64;72.32
15817;BME280;8009;50.070;8.232;2023-05-02T04:16:35;100280.41;;;11.93;71.85
15817;BME280;8009;50.070;8.232;2023-05-02T04:19:03;100278.31;;;11.97;71.58
15817;BME280;8009;50.070;8.232;2023-05-02T04:21:50;100284.16;;;11.79;71.85
15817;BME280;8009;50.070;8.232;2023-05-02T04:24:18;100291.75;;;11.98;71.92
15817;BME280;8009;50.070;8.232;2023-05-02T04:26:46;100303.91;;;11.68;72.45
15817;BME280;8009;50.070;8.232;2023-05-02T04:29:14;100305.25;;;11.87;71.69
15817;BME280;8009;50.070;8.232;2023-05-02T04:31:43;100309.31;;;11.92;71.93
15817;BME280;8009;50.070;8.232;2023-05-02T04:34:11;100319.91;;;11.95;71.58
15817;BME280;8009;50.070;8.232;2023-05-02T04:36:40;100319.22;;;12.16;70.96
15817;BME280;8009;50.070;8.232;2023-05-02T04:39:10;100316.91;;;12.23;71.01
15817;BME280;8009;50.070;8.232;2023-05-02T04:41:39;100316.84;;;12.00;71.08
15817;BME280;8009;50.070;8.232;2023-05-02T04:44:07;100326.53;;;12.27;70.13
15817;BME280;8009;50.070;8.232;2023-05-02T04:46:36;100331.00;;;12.04;71.17
15817;BME280;8009;50.070;8.232;2023-05-02T04:49:04;100328.13;;;11.94;71.94
15817;BME280;8009;50.070;8.232;2023-05-02T04:51:32;100328.53;;;11.77;72.53
15817;BME280;8009;50.070;8.232;2023-05-02T04:54:01;100334.53;;;11.93;70.97
15817;BME280;8009;50.070;8.232;2023-05-02T04:56:32;100343.13;;;12.22;70.93
15817;BME280;8009;50.070;8.232;2023-05-02T04:59:00;100337.41;;;12.49;69.87
15817;BME280;8009;50.070;8.232;2023-05-02T05:01:29;100347.47;;;12.36;69.88
15817;BME280;8009;50.070;8.232;2023-05-02T05:03:57;100342.19;;;12.34;70.50
15817;BME280;8009;50.070;8.232;2023-05-02T05:06:34;100347.69;;;12.22;70.57
15817;BME280;8009;50.070;8.232;2023-05-02T05:09:03;100354.00;;;12.33;70.01
15817;BME280;8009;50.070;8.232;2023-05-02T05:11:34;100348.88;;;12.06;70.57
15817;BME280;8009;50.070;8.232;2023-05-02T05:14:11;100358.88;;;12.28;70.30
15817;BME280;8009;50.070;8.232;2023-05-02T05:16:39;100357.03;;;12.17;71.18
15817;BME280;8009;50.070;8.232;2023-05-02T05:19:07;100367.00;;;12.28;70.17
15817;BME280;8009;50.070;8.232;2023-05-02T05:21:36;100374.75;;;11.98;70.83
15817;BME280;8009;50.070;8.232;2023-05-02T05:24:06;100374.13;;;12.18;70.27
15817;BME280;8009;50.070;8.232;2023-05-02T05:26:37;100377.91;;;12.15;70.18
15817;BME280;8009;50.070;8.232;2023-05-02T05:29:06;100380.34;;;12.42;69.28
15817;BME280;8009;50.070;8.232;2023-05-02T05:31:36;100383.13;;;11.94;70.82
15817;BME280;8009;50.070;8.232;2023-05-02T05:34:06;100383.03;;;12.31;69.75
15817;BME280;8009;50.070;8.232;2023-05-02T05:36:37;100386.09;;;12.27;69.95
15817;BME280;8009;50.070;8.232;2023-05-02T05:39:06;100397.06;;;12.72;68.11
15817;BME280;8009;50.070;8.232;2023-05-02T05:41:37;100390.56;;;13.08;67.70
15817;BME280;8009;50.070;8.232;2023-05-02T05:44:32;100397.94;;;12.95;68.44
15817;BME280;8009;50.070;8.232;2023-05-02T05:47:18;100407.59;;;12.52;70.25
15817;BME280;8009;50.070;8.232;2023-05-02T05:49:46;100408.25;;;12.67;69.77
15817;BME280;8009;50.070;8.232;2023-05-02T05:52:15;100403.50;;;13.04;67.94
15817;BME280;8009;50.070;8.232;2023-05-02T05:54:48;100419.13;;;12.89;68.59
15817;BME280;8009;50.070;8.232;2023-05-02T05:57:23;100415.81;;;12.86;69.11
15817;BME280;8009;50.070;8.232;2023-05-02T05:59:51;100422.03;;;12.64;69.43
15817;BME280;8009;50.070;8.232;2023-05-02T06:02:20;100409.66;;;12.95;68.59
15817;BME280;8009;50.070;8.232;2023-05-02T06:04:48;100411.25;;;12.86;68.86
15817;BME280;8009;50.070;8.232;2023-05-02T06:07:17;100415.06;;;12.84;68.72
15817;BME280;8009;50.070;8.232;2023-05-02T06:09:45;100407.94;;;13.05;67.87
15817;BME280;8009;50.070;8.232;2023-05-02T06:12:13;100417.91;;;13.16;67.37
15817;BME280;8009;50.070;8.232;2023-05-02T06:14:45;100417.84;;;13.40;66.46
15817;BME280;8009;50.070;8.232;2023-05-02T06:17:13;100423.75;;;13.34;67.41
15817;BME280;8009;50.070;8.232;2023-05-02T06:19:41;100435.22;;;13.49;66.55
15817;BME280;8009;50.070;8.232;2023-05-02T06:22:12;100435.22;;;13.37;66.46
15817;BME280;8009;50.070;8.232;2023-05-02T06:24:40;100439.78;;;13.26;65.88
15817;BME280;8009;50.070;8.232;2023-05-02T06:27:09;100439.38;;;13.75;64.41
15817;BME280;8009;50.070;8.232;2023-05-02T06:29:37;100446.16;;;13.70;65.26
15817;BME280;8009;50.070;8.232;2023-05-02T06:32:09;100455.91;;;14.27;63.07
15817;BME280;8009;50.070;8.232;2023-05-02T06:34:40;100453.41;;;13.92;64.69
15817;BME280;8009;50.070;8.232;2023-05-02T06:37:08;100458.78;;;13.37;64.82
15817;BME280;8009;50.070;8.232;2023-05-02T06:39:37;100470.59;;;13.25;66.48
15817;BME280;8009;50.070;8.232;2023-05-02T06:42:05;100468.94;;;13.22;65.45
15817;BME280;8009;50.070;8.232;2023-05-02T06:44:33;100470.25;;;13.40;64.74
15817;BME280;8009;50.070;8.232;2023-05-02T06:47:03;100475.78;;;13.50;64.98
15817;BME280;8009;50.070;8.232;2023-05-02T06:49:34;100479.84;;;13.45;64.85
15817;BME280;8009;50.070;8.232;2023-05-02T06:52:02;100485.38;;;13.77;63.86
15817;BME280;8009;50.070;8.232;2023-05-02T06:54:31;100489.22;;;13.52;64.95
15817;BME280;8009;50.070;8.232;2023-05-02T06:56:59;100481.81;;;13.54;64.48
15817;BME280;8009;50.070;8.232;2023-05-02T06:59:28;100482.88;;;14.07;62.82
15817;BME280;8009;50.070;8.232;2023-05-02T07:01:56;100493.91;;;13.72;64.10
15817;BME280;8009;50.070;8.232;2023-05-02T07:04:24;100500.50;;;14.24;62.72
15817;BME280;8009;50.070;8.232;2023-05-02T07:06:55;100498.59;;;13.81;63.04
15817;BME280;8009;50.070;8.232;2023-05-02T07:09:23;100496.13;;;13.56;63.64
15817;BME280;8009;50.070;8.232;2023-05-02T07:11:52;100511.28;;;13.25;64.22
15817;BME280;8009;50.070;8.232;2023-05-02T07:14:20;100510.78;;;13.42;63.53
15817;BME280;8009;50.070;8.232;2023-05-02T07:16:49;100508.56;;;13.25;63.94
15817;BME280;8009;50.070;8.232;2023-05-02T07:19:17;100516.69;;;13.25;64.61
15817;BME280;8009;50.070;8.232;2023-05-02T07:21:46;100516.84;;;13.79;63.11
15817;BME280;8009;50.070;8.232;2023-05-02T07:24:17;100519.97;;;13.17;65.09
15817;BME280;8009;50.070;8.232;2023-05-02T07:26:45;100525.13;;;13.67;63.65
15817;BME280;8009;50.070;8.232;2023-05-02T07:29:13;100535.22;;;13.64;64.04
15817;BME280;8009;50.070;8.232;2023-05-02T07:31:42;100534.97;;;13.56;64.63
15817;BME280;8009;50.070;8.232;2023-05-02T07:34:10;100539.38;;;13.35;64.32
15817;BME280;8009;50.070;8.232;2023-05-02T07:36:38;100539.41;;;13.46;64.32
15817;BME280;8009;50.070;8.232;2023-05-02T07:39:07;100539.19;;;13.60;64.22
15817;BME280;8009;50.070;8.232;2023-05-02T07:41:39;100531.13;;;13.93;63.03
15817;BME280;8009;50.070;8.232;2023-05-02T07:44:10;100532.59;;;14.19;62.27
15817;BME280;8009;50.070;8.232;2023-05-02T07:46:38;100534.22;;;13.88;63.56
15817;BME280;8009;50.070;8.232;2023-05-02T07:49:06;100547.19;;;13.62;62.87
15817;BME280;8009;50.070;8.232;2023-05-02T07:51:35;100550.41;;;13.67;62.83
15817;BME280;8009;50.070;8.232;2023-05-02T07:54:13;100564.94;;;13.44;63.51
15817;BME280;8009;50.070;8.232;2023-05-02T07:56:44;100564.31;;;13.40;63.37
15817;BME280;8009;50.070;8.232;2023-05-02T07:59:13;100561.88;;;13.71;63.07
15817;BME280;8009;50.070;8.232;2023-05-02T08:01:42;100559.59;;;13.31;63.68
15817;BME280;8009;50.070;8.232;2023-05-02T08:04:13;100566.91;;;13.53;63.25
15817;BME280;8009;50.070;8.232;2023-05-02T08:06:43;100564.34;;;13.85;61.09
15817;BME280;8009;50.070;8.232;2023-05-02T08:09:11;100572.75;;;13.71;61.87
15817;BME280;8009;50.070;8.232;2023-05-02T08:11:39;100570.41;;;13.66;61.87
15817;BME280;8009;50.070;8.232;2023-05-02T08:14:10;100567.94;;;13.97;60.96
15817;BME280;8009;50.070;8.232;2023-05-02T08:16:39;100575.69;;;13.90;61.64
15817;BME280;8009;50.070;8.232;2023-05-02T08:19:07;100575.81;;;14.11;60.80
15817;BME280;8009;50.070;8.232;2023-05-02T08:21:35;100577.81;;;13.98;61.49
15817;BME280;8009;50.070;8.232;2023-05-02T08:24:04;100589.53;;;13.98;60.43
15817;BME280;8009;50.070;8.232;2023-05-02T08:26:32;100588.13;;;14.15;60.06
15817;BME280;8009;50.070;8.232;2023-05-02T08:29:01;100589.88;;;13.60;61.68
15817;BME280;8009;50.070;8.232;2023-05-02T08:31:33;100597.41;;;13.79;62.01
15817;BME280;8009;50.070;8.232;2023-05-02T08:34:02;100595.69;;;13.78;60.89
15817;BME280;8009;50.070;8.232;2023-05-02T08:36:30;100604.34;;;13.94;60.90
15817;BME280;8009;50.070;8.232;2023-05-02T08:38:59;100595.56;;;14.02;62.33
15817;BME280;8009;50.070;8.232;2023-05-02T08:41:28;100593.44;;;14.39;59.06
15817;BME280;8009;50.070;8.232;2023-05-02T08:43:58;100602.56;;;14.38;59.89
15817;BME280;8009;50.070;8.232;2023-05-02T08:46:27;100608.25;;;13.68;62.15
15817;BME280;8009;50.070;8.232;2023-05-02T08:48:59;100608.75;;;14.06;60.78
15817;BME280;8009;50.070;8.232;2023-05-02T08:51:29;100614.44;;;14.03;60.87
15817;BME280;8009;50.070;8.232;2023-05-02T08:53:57;100619.16;;;14.12;60.58
15817;BME280;8009;50.070;8.232;2023-05-02T08:56:28;100615.56;;;14.12;59.77
15817;BME280;8009;50.070;8.232;2023-05-02T08:58:56;100621.97;;;14.11;60.62
15817;BME280;8009;50.070;8.232;2023-05-02T09:01:29;100621.34;;;14.52;59.81
15817;BME280;8009;50.070;8.232;2023-05-02T09:04:01;100628.00;;;14.26;59.40
15817;BME280;8009;50.070;8.232;2023-05-02T09:06:29;100638.31;;;13.53;60.84
15817;BME280;8009;50.070;8.232;2023-05-02T09:08:59;100636.31;;;14.13;59.77
15817;BME280;8009;50.070;8.232;2023-05-02T09:11:29;100633.81;;;13.87;60.63
15817;BME280;8009;50.070;8.232;2023-05-02T09:13:59;100637.44;;;13.53;61.35
15817;BME280;8009;50.070;8.232;2023-05-02T09:16:37;100638.38;;;13.98;59.85
15817;BME280;8009;50.070;8.232;2023-05-02T09:19:11;100639.75;;;14.15;60.20
15817;BME280;8009;50.070;8.232;2023-05-02T09:21:50;100644.56;;;14.11;59.45
15817;BME280;8009;50.070;8.232;2023-05-02T09:24:20;100642.56;;;14.47;58.56
15817;BME280;8009;50.070;8.232;2023-05-02T09:26:59;100634.44;;;14.36;57.63
15817;BME280;8009;50.070;8.232;2023-05-02T09:29:28;100635.91;;;14.40;58.42
15817;BME280;8009;50.070;8.232;2023-05-02T09:32:00;100645.53;;;14.78;57.53
15817;BME280;8009;50.070;8.232;2023-05-02T09:34:33;100646.53;;;14.32;57.21
15817;BME280;8009;50.070;8.232;2023-05-02T09:37:01;100643.94;;;14.42;57.29
15817;BME280;8009;50.070;8.232;2023-05-02T09:39:30;100640.50;;;14.39;57.17
15817;BME280;8009;50.070;8.232;2023-05-02T09:41:59;100643.47;;;14.91;56.85
15817;BME280;8009;50.070;8.232;2023-05-02T09:44:36;100643.06;;;15.07;55.79
15817;BME280;8009;50.070;8.232;2023-05-02T09:47:06;100642.50;;;15.24;55.06
15817;BME280;8009;50.070;8.232;2023-05-02T09:49:42;100653.72;;;14.99;56.02
15817;BME280;8009;50.070;8.232;2023-05-02T09:52:14;100647.22;;;14.79;56.26
15817;BME280;8009;50.070;8.232;2023-05-02T09:54:43;100661.03;;;14.98;55.52
15817;BME280;8009;50.070;8.232;2023-05-02T09:57:12;100647.16;;;15.01;55.58
15817;BME280;8009;50.070;8.232;2023-05-02T09:59:41;100655.75;;;14.85;55.33
15817;BME280;8009;50.070;8.232;2023-05-02T10:02:09;100649.56;;;15.27;55.28
15817;BME280;8009;50.070;8.232;2023-05-02T10:04:37;100644.38;;;15.45;54.24
15817;BME280;8009;50.070;8.232;2023-05-02T10:07:09;100637.31;;;15.95;53.04
15817;BME280;8009;50.070;8.232;2023-05-02T10:09:42;100640.91;;;16.05;52.59
15817;BME280;8009;50.070;8.232;2023-05-02T10:12:13;100641.06;;;15.41;53.64
15817;BME280;8009;50.070;8.232;2023-05-02T10:14:47;100635.44;;;15.96;52.49
15817;BME280;8009;50.070;8.232;2023-05-02T10:17:21;100638.34;;;15.83;53.79
15817;BME280;8009;50.070;8.232;2023-05-02T10:19:55;100630.59;;;16.40;51.97
15817;BME280;8009;50.070;8.232;2023-05-02T10:22:27;100631.19;;;16.43;51.54
15817;BME280;8009;50.070;8.232;2023-05-02T10:24:57;100633.81;;;16.14;52.34
15817;BME280;8009;50.070;8.232;2023-05-02T10:27:28;100626.31;;;16.87;50.34
15817;BME280;8009;50.070;8.232;2023-05-02T10:29:57;100640.41;;;16.21;51.60
15817;BME280;8009;50.070;8.232;2023-05-02T10:32:28;100630.13;;;16.75;50.25
15817;BME280;8009;50.070;8.232;2023-05-02T10:35:05;100622.13;;;16.93;50.29
15817;BME280;8009;50.070;8.232;2023-05-02T10:37:38;100623.63;;;18.02;47.49
15817;BME280;8009;50.070;8.232;2023-05-02T10:40:09;100609.25;;;18.37;47.71
15817;BME280;8009;50.070;8.232;2023-05-02T10:42:42;100612.81;;;18.10;47.34
15817;BME280;8009;50.070;8.232;2023-05-02T10:45:11;100613.50;;;17.75;48.24
15817;BME280;8009;50.070;8.232;2023-05-02T10:47:40;100609.03;;;17.84;46.50
15817;BME280;8009;50.070;8.232;2023-05-02T10:50:09;100610.78;;;17.17;47.11
15817;BME280;8009;50.070;8.232;2023-05-02T10:52:40;100602.31;;;17.39;47.79
15817;BME280;8009;50.070;8.232;2023-05-02T10:55:19;100592.75;;;17.92;47.26
15817;BME280;8009;50.070;8.232;2023-05-02T11:00:46;100590.19;;;18.18;45.11
15817;BME280;8009;50.070;8.232;2023-05-02T11:06:19;100586.72;;;17.88;44.44
15817;BME280;8009;50.070;8.232;2023-05-02T11:08:50;100581.03;;;18.09;45.43
15817;BME280;8009;50.070;8.232;2023-05-02T11:11:37;100576.81;;;17.87;45.02
15817;BME280;8009;50.070;8.232;2023-05-02T11:14:07;100573.16;;;18.34;45.39
15817;BME280;8009;50.070;8.232;2023-05-02T11:17:07;100583.50;;;18.02;44.24
15817;BME280;8009;50.070;8.232;2023-05-02T11:22:53;100593.00;;;16.84;48.54
15817;BME280;8009;50.070;8.232;2023-05-02T11:25:36;100587.28;;;16.87;48.46
15817;BME280;8009;50.070;8.232;2023-05-02T11:28:43;100590.44;;;17.21;47.80
15817;BME280;8009;50.070;8.232;2023-05-02T11:34:43;100595.03;;;16.01;50.36
15817;BME280;8009;50.070;8.232;2023-05-02T11:37:11;100602.28;;;15.91;51.26
15817;BME280;8009;50.070;8.232;2023-05-02T11:39:40;100608.47;;;15.51;52.20
15817;BME280;8009;50.070;8.232;2023-05-02T11:42:26;100606.06;;;15.69;50.88
15817;BME280;8009;50.070;8.232;2023-05-02T11:44:55;100611.13;;;15.62;52.80
15817;BME280;8009;50.070;8.232;2023-05-02T11:47:24;100608.75;;;15.48;51.93
15817;BME280;8009;50.070;8.232;2023-05-02T11:49:53;100619.28;;;15.41;53.27
15817;BME280;8009;50.070;8.232;2023-05-02T11:52:22;100608.47;;;15.30;52.89
15817;BME280;8009;50.070;8.232;2023-05-02T11:54:53;100603.34;;;15.36;52.28
15817;BME280;8009;50.070;8.232;2023-05-02T11:57:24;100619.13;;;15.22;52.10
15817;BME280;8009;50.070;8.232;2023-05-02T11:59:54;100604.09;;;15.39;50.18
15817;BME280;8009;50.070;8.232;2023-05-02T12:02:34;100603.22;;;15.59;50.63
15817;BME280;8009;50.070;8.232;2023-05-02T12:05:04;100614.66;;;15.32;49.93
15817;BME280;8009;50.070;8.232;2023-05-02T12:07:36;100612.22;;;15.71;50.00
15817;BME280;8009;50.070;8.232;2023-05-02T12:10:06;100606.91;;;15.69;48.04
15817;BME280;8009;50.070;8.232;2023-05-02T12:12:38;100612.66;;;15.55;49.58
15817;BME280;8009;50.070;8.232;2023-05-02T12:15:11;100600.16;;;15.10;52.06
15817;BME280;8009;50.070;8.232;2023-05-02T12:17:45;100607.94;;;15.36;51.64
15817;BME280;8009;50.070;8.232;2023-05-02T12:20:16;100615.16;;;15.26;51.87
15817;BME280;8009;50.070;8.232;2023-05-02T12:22:50;100614.13;;;15.59;52.32
15817;BME280;8009;50.070;8.232;2023-05-02T12:31:54;100620.38;;;15.92;51.88
15817;BME280;8009;50.070;8.232;2023-05-02T12:34:33;100621.16;;;15.62;53.48
15817;BME280;8009;50.070;8.232;2023-05-02T12:37:02;100622.56;;;15.77;53.12
15817;BME280;8009;50.070;8.232;2023-05-02T12:39:36;100623.44;;;16.08;53.40
15817;BME280;8009;50.070;8.232;2023-05-02T12:42:11;100631.19;;;16.03;53.48
15817;BME280;8009;50.070;8.232;2023-05-02T12:44:42;100627.94;;;16.19;54.40
15817;BME280;8009;50.070;8.232;2023-05-02T12:47:15;100624.13;;;16.00;55.48
15817;BME280;8009;50.070;8.232;2023-05-02T12:50:16;100626.84;;;16.00;54.15
15817;BME280;8009;50.070;8.232;2023-05-02T12:52:50;100636.91;;;15.79;53.88
15817;BME280;8009;50.070;8.232;2023-05-02T12:55:24;100643.19;;;16.00;52.14
15817;BME280;8009;50.070;8.232;2023-05-02T12:57:59;100647.97;;;16.08;51.94
15817;BME280;8009;50.070;8.232;2023-05-02T13:00:28;100641.84;;;16.16;50.53
15817;BME280;8009;50.070;8.232;2023-05-02T13:03:00;100647.09;;;16.07;50.40
15817;BME280;8009;50.070;8.232;2023-05-02T13:05:29;100646.63;;;16.33;51.17
15817;BME280;8009;50.070;8.232;2023-05-02T13:07:57;100644.50;;;16.06;52.02
15817;BME280;8009;50.070;8.232;2023-05-02T13:10:26;100644.41;;;16.17;52.80
15817;BME280;8009;50.070;8.232;2023-05-02T13:12:55;100636.09;;;16.49;51.11
15817;BME280;8009;50.070;8.232;2023-05-02T13:15:24;100644.78;;;16.33;50.63
15817;BME280;8009;50.070;8.232;2023-05-02T13:17:53;100640.63;;;15.99;50.01
15817;BME280;8009;50.070;8.232;2023-05-02T13:20:32;100634.66;;;16.55;49.33
15817;BME280;8009;50.070;8.232;2023-05-02T13:23:08;100642.41;;;16.60;47.83
15817;BME280;8009;50.070;8.232;2023-05-02T13:25:37;100641.97;;;16.54;50.08
15817;BME280;8009;50.070;8.232;2023-05-02T13:28:07;100632.22;;;16.52;49.77
15817;BME280;8009;50.070;8.232;2023-05-02T13:30:37;100638.50;;;16.93;48.88
15817;BME280;8009;50.070;8.232;2023-05-02T13:33:05;100626.44;;;16.86;49.44
15817;BME280;8009;50.070;8.232;2023-05-02T13:35:36;100624.56;;;16.76;48.42
15817;BME280;8009;50.070;8.232;2023-05-02T13:38:08;100627.16;;;16.88;50.72
15817;BME280;8009;50.070;8.232;2023-05-02T13:40:36;100630.19;;;16.94;47.51
15817;BME280;8009;50.070;8.232;2023-05-02T13:43:05;100627.56;;;16.73;48.13
15817;BME280;8009;50.070;8.232;2023-05-02T13:45:33;100634.38;;;17.18;48.78
15817;BME280;8009;50.070;8.232;2023-05-02T13:48:07;100637.06;;;16.79;46.38
15817;BME280;8009;50.070;8.232;2023-05-02T13:50:40;100630.63;;;17.09;48.50
15817;BME280;8009;50.070;8.232;2023-05-02T13:53:08;100641.53;;;17.38;45.71
15817;BME280;8009;50.070;8.232;2023-05-02T13:55:36;100636.09;;;17.38;47.00
15817;BME280;8009;50.070;8.232;2023-05-02T13:58:05;100638.22;;;16.96;47.77
15817;BME280;8009;50.070;8.232;2023-05-02T14:00:33;100635.13;;;16.70;47.34
15817;BME280;8009;50.070;8.232;2023-05-02T14:03:02;100651.69;;;16.78;47.20
15817;BME280;8009;50.070;8.232;2023-05-02T14:05:31;100643.13;;;17.02;46.47
15817;BME280;8009;50.070;8.232;2023-05-02T14:08:03;100640.94;;;17.05;47.27
15817;BME280;8009;50.070;8.232;2023-05-02T14:10:31;100637.38;;;17.44;45.94
15817;BME280;8009;50.070;8.232;2023-05-02T14:13:02;100635.75;;;17.70;44.84
15817;BME280;8009;50.070;8.232;2023-05-02T14:15:30;100633.31;;;17.77;44.88
15817;BME280;8009;50.070;8.232;2023-05-02T14:17:58;100636.78;;;17.60;45.07
15817;BME280;8009;50.070;8.232;2023-05-02T14:20:27;100643.69;;;17.64;44.46
15817;BME280;8009;50.070;8.232;2023-05-02T14:22:55;100633.78;;;17.34;44.83
15817;BME280;8009;50.070;8.232;2023-05-02T14:25:26;100641.97;;;17.24;46.57
15817;BME280;8009;50.070;8.232;2023-05-02T14:27:54;100636.38;;;17.25;45.51
15817;BME280;8009;50.070;8.232;2023-05-02T14:30:23;100648.75;;;17.29;46.24
15817;BME280;8009;50.070;8.232;2023-05-02T14:32:51;100651.72;;;16.97;47.05
15817;BME280;8009;50.070;8.232;2023-05-02T14:35:20;100647.69;;;17.01;46.06
15817;BME280;8009;50.070;8.232;2023-05-02T14:37:49;100655.81;;;16.72;45.61
15817;BME280;8009;50.070;8.232;2023-05-02T14:40:17;100657.97;;;16.69;45.93